Time;durP1;ratioP1;P1;durP2;ratioP2;P2;SDS_P1;SDS_P2;PMS_P1;PMS_P2;Temp;Humidity;BMP_temperature;BMP_pressure;BME280_temperature;BME280_humidity;BME280_pressure;Samples;Min_cycle;Max_cycle;Signal;HPM_P1;HPM_P2
2022/11/06 00:03:09;;;;;;;20.17;8.60;;;;;;;7.42;82.01;101369.56;32034584;27;20054;-85
2022/11/06 00:18:10;;;;;;;21.10;9.53;;;;;;;7.44;80.73;101380.00;32014102;27;20047;-85
2022/11/06 00:33:13;;;;;;;20.97;9.57;;;;;;;7.45;80.98;101373.44;32053676;27;20133;-85
2022/11/06 00:48:15;;;;;;;21.13;10.40;;;;;;;7.31;81.18;101355.13;31996139;27;20053;-84
2022/11/06 01:03:17;;;;;;;27.77;12.67;;;;;;;7.07;80.90;101358.25;32035484;27;20051;-84
2022/11/06 01:18:19;;;;;;;29.20;13.67;;;;;;;6.62;82.41;101361.78;32027510;27;20107;-86
2022/11/06 01:33:22;;;;;;;46.47;20.93;;;;;;;6.56;84.33;101374.03;32023069;27;20060;-84
2022/11/06 01:48:27;;;;;;;44.50;19.63;;;;;;;6.54;84.59;101370.91;32043345;27;20472;-84
2022/11/06 02:03:29;;;;;;;47.17;19.63;;;;;;;6.43;84.63;101376.88;32040085;27;20046;-85
2022/11/06 02:18:49;;;;;;;48.80;19.60;;;;;;;6.21;85.49;101385.75;32079984;27;20038;-85
2022/11/06 02:33:58;;;;;;;47.10;20.10;;;;;;;6.34;85.69;101410.66;32025186;27;20046;-84
2022/11/06 02:49:24;;;;;;;46.83;16.70;;;;;;;6.59;84.91;101424.59;32050740;27;20038;-83
2022/11/06 03:04:34;;;;;;;32.13;13.10;;;;;;;6.77;83.78;101431.84;32013481;27;20056;-84
2022/11/06 03:19:51;;;;;;;31.60;13.20;;;;;;;6.83;83.16;101438.50;32027409;27;20456;-84
2022/11/06 03:35:09;;;;;;;31.93;12.70;;;;;;;6.82;82.36;101441.56;32035401;27;20061;-85
2022/11/06 03:50:31;;;;;;;30.97;11.77;;;;;;;6.74;81.77;101447.97;32017805;27;20050;-85
2022/11/06 04:05:40;;;;;;;26.87;11.50;;;;;;;6.60;82.86;101450.44;32040294;27;20129;-84
2022/11/06 04:21:24;;;;;;;25.23;9.83;;;;;;;6.53;82.97;101445.69;32049073;27;20065;-85
2022/11/06 04:36:43;;;;;;;30.00;11.43;;;;;;;6.13;83.88;101444.16;32038984;27;20057;-84
2022/11/06 04:51:46;;;;;;;25.77;9.73;;;;;;;6.21;83.78;101450.47;32035545;27;20043;-84
2022/11/06 05:06:48;;;;;;;28.57;11.77;;;;;;;6.11;83.79;101456.44;32043926;27;20576;-84
2022/11/06 05:37:18;;;;;;;29.20;10.57;;;;;;;6.75;81.10;101496.19;32055550;27;20197;-83
2022/11/06 05:52:20;;;;;;;30.27;11.67;;;;;;;6.12;84.39;101506.53;32044352;27;20459;-84
2022/11/06 06:07:22;;;;;;;30.17;12.17;;;;;;;6.57;83.55;101526.69;32032845;27;20138;-84
2022/11/06 06:22:31;;;;;;;32.63;14.97;;;;;;;8.50;75.63;101508.41;32063291;27;20043;-83
2022/11/06 06:37:33;;;;;;;22.57;11.83;;;;;;;9.38;67.35;101506.94;32064453;27;20125;-81
2022/11/06 06:52:35;;;;;;;23.23;10.73;;;;;;;8.49;70.18;101501.47;32057844;27;20053;-85
2022/11/06 07:07:37;;;;;;;20.90;9.63;;;;;;;8.50;73.50;101500.28;32012038;27;20098;-83
2022/11/06 07:22:39;;;;;;;23.27;9.33;;;;;;;9.29;70.07;101504.53;32034514;27;20491;-84
2022/11/06 07:37:41;;;;;;;26.33;9.20;;;;;;;9.04;71.07;101501.63;32032519;27;20407;-84
2022/11/06 07:52:43;;;;;;;23.80;9.73;;;;;;;9.18;70.50;101499.03;31993443;27;20051;-83
2022/11/06 08:07:45;;;;;;;21.77;9.40;;;;;;;8.57;73.71;101513.13;32032471;27;20491;-85
2022/11/06 08:22:47;;;;;;;23.33;8.57;;;;;;;8.19;76.89;101516.91;32006118;27;20082;-84
2022/11/06 08:37:55;;;;;;;21.13;8.53;;;;;;;8.48;75.91;101513.44;32013282;27;20286;-84
2022/11/06 08:52:59;;;;;;;18.77;9.60;;;;;;;8.39;74.39;101526.47;32026714;27;20059;-83
2022/11/06 09:08:01;;;;;;;19.80;7.73;;;;;;;8.53;74.32;101517.72;32026170;27;20043;-82
2022/11/06 09:23:12;;;;;;;15.90;7.50;;;;;;;8.79;72.35;101523.03;32037216;27;20046;-82
2022/11/06 09:38:15;;;;;;;16.13;7.93;;;;;;;9.28;70.77;101537.44;32040964;27;20042;-84
2022/11/06 09:53:27;;;;;;;18.27;7.50;;;;;;;9.74;68.99;101511.44;32045171;27;20394;-84
2022/11/06 10:08:29;;;;;;;13.37;6.67;;;;;;;10.05;67.08;101510.06;32072503;27;20400;-84
2022/11/06 10:23:48;;;;;;;17.90;8.40;;;;;;;10.10;65.67;101496.13;32048671;27;20058;-84
2022/11/06 10:38:53;;;;;;;17.53;8.73;;;;;;;9.95;66.09;101493.72;32044006;27;20503;-83
2022/11/06 10:54:05;;;;;;;12.77;7.72;;;;;;;9.68;65.82;101491.28;32055614;27;20140;-83
2022/11/06 11:09:30;;;;;;;16.50;7.80;;;;;;;9.58;65.40;101481.13;32065370;27;20059;-84
2022/11/06 11:24:32;;;;;;;17.07;7.37;;;;;;;9.43;64.15;101471.34;32087731;27;20485;-84
2022/11/06 11:39:42;;;;;;;13.30;7.17;;;;;;;9.47;64.16;101474.84;32081302;27;20106;-84
2022/11/06 11:54:52;;;;;;;13.67;6.87;;;;;;;9.30;63.54;101475.50;32031988;27;20126;-82
2022/11/06 12:09:55;;;;;;;12.30;6.47;;;;;;;9.05;64.14;101467.97;32053809;27;20102;-83
2022/11/06 12:25:02;;;;;;;11.00;6.50;;;;;;;9.00;63.76;101483.78;32009578;27;20060;-83
2022/11/06 12:40:43;;;;;;;12.67;7.20;;;;;;;8.86;63.13;101484.44;32056499;27;20123;-84
2022/11/06 12:56:03;;;;;;;14.23;6.87;;;;;;;8.79;62.66;101478.94;32035044;27;20133;-83
2022/11/06 13:11:16;;;;;;;12.67;6.90;;;;;;;8.61;61.84;101478.00;32068885;27;20039;-84
2022/11/06 13:26:26;;;;;;;10.83;6.17;;;;;;;8.68;61.48;101478.06;32056090;27;20051;-84
2022/11/06 13:41:40;;;;;;;12.17;6.17;;;;;;;8.38;61.65;101476.22;32065825;27;20506;-84
2022/11/06 13:56:47;;;;;;;10.43;6.17;;;;;;;8.26;61.99;101489.19;32078939;27;20274;-84
2022/11/06 14:12:00;;;;;;;12.57;6.80;;;;;;;8.12;62.53;101484.38;32058342;27;20050;-77
2022/11/06 14:27:22;;;;;;;11.37;5.73;;;;;;;7.86;61.73;101491.38;32005404;27;20046;-76
2022/11/06 14:42:45;;;;;;;13.30;7.23;;;;;;;7.77;63.10;101495.50;31978037;27;20107;-78
2022/11/06 14:57:51;;;;;;;17.50;8.40;;;;;;;7.24;64.83;101508.22;32007415;27;20058;-76
2022/11/06 15:13:25;;;;;;;;;;;;;;;7.12;65.87;101509.94;32010653;27;20565;-76
2022/11/06 15:28:32;;;;;;;17.57;9.13;;;;;;;7.04;66.20;101515.59;31957737;27;19948;-77
2022/11/06 15:43:36;;;;;;;16.87;8.80;;;;;;;6.72;65.39;101518.50;31996692;27;20062;-76
2022/11/06 15:58:38;;;;;;;18.73;9.27;;;;;;;6.02;66.01;101536.72;31997230;27;20046;-76
2022/11/06 16:13:43;;;;;;;14.20;7.13;;;;;;;5.58;67.99;101547.66;32021510;27;20054;-84
2022/11/06 16:28:47;;;;;;;14.03;7.27;;;;;;;5.34;69.05;101542.44;32050546;27;20056;-87
2022/11/06 16:44:42;;;;;;;18.33;7.63;;;;;;;5.26;69.09;101546.06;32033984;27;20046;-85
2022/11/06 17:00:04;;;;;;;14.53;6.87;;;;;;;5.25;68.10;101564.13;31969696;27;20051;-84
2022/11/06 17:15:18;;;;;;;13.67;6.60;;;;;;;5.24;68.31;101553.72;31980117;27;20066;-86
2022/11/06 17:30:20;;;;;;;13.57;6.73;;;;;;;5.51;67.79;101558.25;32037571;27;20134;-85
2022/11/06 17:45:24;;;;;;;11.77;6.60;;;;;;;5.71;66.69;101557.19;32036454;27;20564;-85
2022/11/06 18:00:26;;;;;;;16.30;7.47;;;;;;;5.80;66.74;101559.69;32037597;27;20037;-85
2022/11/06 18:15:28;;;;;;;14.53;7.30;;;;;;;5.74;67.06;101556.47;32046768;27;20054;-86
2022/11/06 18:30:31;;;;;;;16.97;8.00;;;;;;;5.81;67.77;101556.66;32067297;27;20102;-86
2022/11/06 18:45:39;;;;;;;21.60;9.07;;;;;;;5.99;67.63;101546.28;32095078;27;20099;-86
2022/11/06 19:00:46;;;;;;;23.53;9.77;;;;;;;5.88;68.82;101547.16;32108834;27;20068;-85
2022/11/06 19:15:50;;;;;;;16.33;7.57;;;;;;;5.63;69.92;101542.00;32095318;27;20103;-85
2022/11/06 19:30:53;;;;;;;12.13;5.67;;;;;;;5.55;71.73;101553.72;32083566;27;20039;-77
2022/11/06 19:46:01;;;;;;;14.27;6.30;;;;;;;5.20;73.49;101563.63;31981382;27;20097;-76
2022/11/06 20:01:13;;;;;;;13.67;6.23;;;;;;;4.95;73.70;101571.84;32008281;27;20499;-75
2022/11/06 20:16:22;;;;;;;11.37;5.80;;;;;;;4.68;72.85;101581.50;32006673;27;20106;-75
2022/11/06 20:31:26;;;;;;;13.20;6.20;;;;;;;4.40;74.52;101581.47;31986296;27;20088;-77
2022/11/06 20:46:28;;;;;;;13.93;6.73;;;;;;;4.35;75.92;101579.00;32007997;27;20081;-76
2022/11/06 21:01:30;;;;;;;11.87;6.10;;;;;;;3.88;76.31;101592.16;31987273;27;20103;-78
2022/11/06 21:16:34;;;;;;;9.23;5.33;;;;;;;3.72;77.34;101573.25;32000016;27;20050;-77
2022/11/06 21:31:40;;;;;;;11.17;5.93;;;;;;;3.65;77.91;101561.50;31993493;27;20046;-75
2022/11/06 21:46:49;;;;;;;11.17;5.47;;;;;;;3.80;79.66;101557.34;31982990;27;20051;-76
2022/11/06 22:01:51;;;;;;;8.63;5.13;;;;;;;3.74;79.79;101538.78;32014222;27;20059;-77
2022/11/06 22:16:54;;;;;;;5.03;3.07;;;;;;;3.83;79.78;101530.59;32022692;27;20415;-75
2022/11/06 22:31:58;;;;;;;10.80;5.13;;;;;;;3.86;80.23;101529.13;32000145;27;20043;-76
2022/11/06 22:47:01;;;;;;;10.03;4.73;;;;;;;3.80;80.54;101539.31;32008781;27;20050;-75
2022/11/06 23:02:04;;;;;;;7.33;3.70;;;;;;;3.65;79.69;101540.00;32006663;27;20107;-76
2022/11/06 23:17:06;;;;;;;6.97;4.53;;;;;;;3.38;80.85;101549.50;32009865;27;20050;-76
2022/11/06 23:32:08;;;;;;;7.73;4.40;;;;;;;3.71;80.92;101565.53;31983321;27;20451;-75
2022/11/06 23:47:10;;;;;;;5.20;3.40;;;;;;;3.88;79.78;101559.94;32002110;27;20080;-75
